Time;durP1;ratioP1;P1;durP2;ratioP2;P2;SDS_P1;SDS_P2;PMS_P1;PMS_P2;Temp;Humidity;BMP_temperature;BMP_pressure;BME280_temperature;BME280_humidity;BME280_pressure;Samples;Min_cycle;Max_cycle;Signal;HPM_P1;HPM_P2
2023/08/31 00:01:40;;;;;;;4.88;2.30;;;;;;;11.85;100.00;100880.94;6052245;19;20213;-67
2023/08/31 00:03:50;;;;;;;4.25;2.20;;;;;;;11.91;100.00;100890.38;6070625;19;20754;-69
2023/08/31 00:05:56;;;;;;;4.90;2.88;;;;;;;12.00;100.00;100894.34;6090760;19;20480;-68
2023/08/31 00:08:01;;;;;;;4.68;3.13;;;;;;;12.09;100.00;100907.13;6079623;19;20010;-70
2023/08/31 00:10:09;;;;;;;5.85;2.63;;;;;;;12.33;100.00;100909.56;6059574;19;20096;-70
2023/08/31 00:12:14;;;;;;;5.35;2.67;;;;;;;12.48;100.00;100890.34;6055658;19;20013;-68
2023/08/31 00:14:20;;;;;;;6.40;2.53;;;;;;;12.49;100.00;100887.66;6070098;19;20458;-69
2023/08/31 00:16:29;;;;;;;7.55;2.58;;;;;;;12.46;100.00;100885.19;6069246;19;20051;-69
2023/08/31 00:18:35;;;;;;;4.82;2.25;;;;;;;12.47;100.00;100878.97;6048651;19;20536;-68
2023/08/31 00:20:43;;;;;;;4.72;2.67;;;;;;;12.50;100.00;100880.59;6047862;19;20035;-69
2023/08/31 00:22:48;;;;;;;5.53;2.70;;;;;;;12.44;100.00;100883.53;6052019;19;20522;-67
2023/08/31 00:24:52;;;;;;;4.60;2.88;;;;;;;12.39;100.00;100890.81;6060332;19;20176;-67
2023/08/31 00:26:58;;;;;;;4.72;2.63;;;;;;;12.39;100.00;100889.03;6048719;19;20467;-67
2023/08/31 00:29:04;;;;;;;5.45;2.17;;;;;;;12.39;100.00;100882.91;6051226;19;20044;-67
2023/08/31 00:31:09;;;;;;;3.78;2.40;;;;;;;12.39;100.00;100883.75;6052959;19;20029;-69
2023/08/31 00:33:15;;;;;;;8.27;2.72;;;;;;;12.44;100.00;100878.28;6052544;19;20063;-67
2023/08/31 00:35:20;;;;;;;5.60;2.58;;;;;;;12.42;100.00;100873.06;6057211;19;20531;-67
2023/08/31 00:37:31;;;;;;;3.85;2.22;;;;;;;12.39;100.00;100870.56;6059159;19;20010;-67
2023/08/31 00:39:38;;;;;;;5.32;2.20;;;;;;;12.32;100.00;100861.25;6059251;19;20050;-67
2023/08/31 00:41:44;;;;;;;6.65;2.53;;;;;;;12.33;100.00;100865.59;6069160;19;20049;-68
2023/08/31 00:43:50;;;;;;;4.43;2.40;;;;;;;12.26;100.00;100867.66;6079612;19;20006;-68
2023/08/31 00:45:59;;;;;;;5.40;2.33;;;;;;;12.21;100.00;100867.03;6075665;19;20482;-68
2023/08/31 00:48:04;;;;;;;5.60;2.30;;;;;;;12.20;100.00;100867.97;6055080;19;20018;-69
2023/08/31 00:50:10;;;;;;;7.80;1.90;;;;;;;12.11;100.00;100873.63;6047871;19;20309;-67
2023/08/31 00:52:15;;;;;;;3.80;2.08;;;;;;;12.02;100.00;100876.72;6045198;19;20117;-69
2023/08/31 00:54:25;;;;;;;2.55;1.75;;;;;;;11.99;100.00;100871.59;6055020;19;20463;-68
2023/08/31 00:56:30;;;;;;;3.85;1.70;;;;;;;11.93;100.00;100877.13;6056310;19;20475;-68
2023/08/31 00:58:35;;;;;;;3.28;1.73;;;;;;;11.91;100.00;100877.22;6049166;19;20015;-67
2023/08/31 01:00:49;;;;;;;3.40;1.58;;;;;;;11.84;100.00;100873.09;6054442;19;20030;-68
2023/08/31 01:03:08;;;;;;;4.85;2.15;;;;;;;11.82;100.00;100870.56;6055260;19;20438;-67
2023/08/31 01:05:22;;;;;;;3.90;1.95;;;;;;;11.72;100.00;100866.63;6058815;19;20014;-69
2023/08/31 01:07:41;;;;;;;3.88;2.00;;;;;;;11.70;100.00;100864.97;6048926;19;20020;-69
2023/08/31 01:10:00;;;;;;;1.98;1.65;;;;;;;11.61;100.00;100868.84;6053534;19;20460;-68
2023/08/31 01:12:09;;;;;;;3.47;2.00;;;;;;;11.57;100.00;100864.66;6053734;19;20007;-67
2023/08/31 01:14:18;;;;;;;4.00;1.83;;;;;;;11.53;100.00;100874.50;6054664;19;20078;-69
2023/08/31 01:16:28;;;;;;;3.90;1.80;;;;;;;11.48;100.00;100865.06;6064055;19;20141;-67
2023/08/31 01:18:37;;;;;;;4.22;2.15;;;;;;;11.45;100.00;100866.03;6061636;19;20046;-69
2023/08/31 01:20:52;;;;;;;3.75;2.10;;;;;;;11.51;100.00;100872.84;6057139;19;20698;-66
2023/08/31 01:23:06;;;;;;;4.45;2.17;;;;;;;11.48;100.00;100865.06;6064662;19;20015;-67
2023/08/31 01:25:14;;;;;;;3.65;1.85;;;;;;;11.48;100.00;100872.94;6067231;19;20539;-67
2023/08/31 01:27:19;;;;;;;2.80;1.63;;;;;;;11.52;100.00;100871.91;6070802;19;20201;-69
2023/08/31 01:29:25;;;;;;;2.53;1.70;;;;;;;11.53;100.00;100873.59;6064105;19;20327;-69
2023/08/31 01:31:30;;;;;;;2.80;1.80;;;;;;;11.58;100.00;100874.25;6062161;19;20011;-68
2023/08/31 01:33:33;;;;;;;5.70;1.95;;;;;;;11.62;100.00;100873.22;6064205;19;20210;-67
2023/08/31 01:35:45;;;;;;;3.53;1.77;;;;;;;11.63;100.00;100870.50;6065242;19;20252;-68
2023/08/31 01:37:55;;;;;;;4.25;1.77;;;;;;;11.67;100.00;100875.66;6064962;19;20028;-69
2023/08/31 01:40:06;;;;;;;1.83;1.67;;;;;;;11.74;100.00;100893.75;6072162;19;20007;-67
2023/08/31 01:42:16;;;;;;;4.43;2.35;;;;;;;11.68;100.00;100883.47;6073725;19;20499;-68
2023/08/31 01:44:22;;;;;;;4.40;2.08;;;;;;;11.75;100.00;100889.31;6070034;19;20034;-67
2023/08/31 01:46:30;;;;;;;3.78;1.88;;;;;;;11.80;100.00;100890.81;6063018;19;20354;-72
2023/08/31 01:48:41;;;;;;;4.38;1.58;;;;;;;11.77;100.00;100885.69;6071811;19;20170;-67
2023/08/31 01:50:46;;;;;;;2.55;1.73;;;;;;;11.81;100.00;100889.03;6078221;19;20294;-69
2023/08/31 01:52:53;;;;;;;4.70;2.08;;;;;;;11.82;100.00;100894.25;6068509;19;20021;-69
2023/08/31 01:55:00;;;;;;;3.00;2.10;;;;;;;11.91;100.00;100885.09;6073395;19;20090;-68
2023/08/31 01:57:06;;;;;;;2.75;2.03;;;;;;;11.94;100.00;100889.38;6082002;19;20110;-68
2023/08/31 01:59:14;;;;;;;2.88;1.70;;;;;;;11.93;100.00;100877.13;6072975;19;20064;-67
2023/08/31 02:01:19;;;;;;;3.15;2.00;;;;;;;11.92;100.00;100884.16;6072332;19;20334;-67
2023/08/31 02:03:21;;;;;;;6.90;2.20;;;;;;;11.91;100.00;100879.00;6065202;19;20305;-67
2023/08/31 02:05:28;;;;;;;2.90;2.15;;;;;;;11.93;100.00;100879.75;6076100;19;20009;-67
2023/08/31 02:07:36;;;;;;;4.05;2.10;;;;;;;11.94;100.00;100881.47;6071527;19;20031;-68
2023/08/31 02:09:44;;;;;;;6.57;2.78;;;;;;;11.96;100.00;100885.75;6082693;19;20227;-67
2023/08/31 02:11:49;;;;;;;6.13;2.88;;;;;;;11.90;100.00;100877.25;6083709;19;20589;-68
2023/08/31 02:13:54;;;;;;;5.32;2.65;;;;;;;11.87;100.00;100888.78;6067228;19;20535;-66
2023/08/31 02:16:02;;;;;;;5.78;2.95;;;;;;;11.83;100.00;100877.53;6068238;19;20747;-67
2023/08/31 02:18:05;;;;;;;4.95;2.15;;;;;;;11.83;100.00;100874.88;6075945;19;20486;-68
2023/08/31 02:20:11;;;;;;;3.72;2.30;;;;;;;11.89;100.00;100880.84;6090701;19;20010;-68
2023/08/31 02:22:16;;;;;;;3.22;2.10;;;;;;;11.86;100.00;100880.03;6071111;19;20291;-68
2023/08/31 02:24:21;;;;;;;6.05;2.55;;;;;;;11.84;100.00;100875.72;6082732;19;20342;-68
2023/08/31 02:26:29;;;;;;;3.50;2.45;;;;;;;11.80;100.00;100872.41;6069682;19;20006;-69
2023/08/31 02:28:34;;;;;;;6.07;2.38;;;;;;;11.74;100.00;100872.69;6072591;19;20011;-67
2023/08/31 02:30:39;;;;;;;3.78;2.40;;;;;;;11.72;100.00;100873.69;6053349;19;20512;-69
2023/08/31 02:32:47;;;;;;;6.43;3.10;;;;;;;11.66;100.00;100877.41;6050884;19;20252;-67
2023/08/31 02:34:52;;;;;;;6.50;2.88;;;;;;;11.60;100.00;100875.91;6063641;19;20218;-69
2023/08/31 02:36:57;;;;;;;4.53;2.28;;;;;;;11.60;100.00;100877.69;6065088;19;20011;-68
2023/08/31 02:39:03;;;;;;;5.60;2.55;;;;;;;11.57;100.00;100875.19;6064547;19;20014;-68
2023/08/31 02:41:08;;;;;;;5.72;2.97;;;;;;;11.57;100.00;100880.47;6059557;19;20014;-69
2023/08/31 02:43:13;;;;;;;5.20;2.70;;;;;;;11.52;100.00;100877.16;6055053;19;20475;-69
2023/08/31 02:45:18;;;;;;;6.47;3.03;;;;;;;11.50;100.00;100879.00;6062180;19;20346;-68
2023/08/31 02:47:26;;;;;;;6.90;3.05;;;;;;;11.48;100.00;100878.22;6061538;19;20710;-67
2023/08/31 02:49:33;;;;;;;4.55;2.72;;;;;;;11.42;100.00;100877.56;6068192;19;20090;-70
2023/08/31 02:51:39;;;;;;;5.63;2.85;;;;;;;11.37;100.00;100876.94;6067437;19;20513;-68
2023/08/31 02:53:41;;;;;;;6.07;2.83;;;;;;;11.38;100.00;100875.16;6071021;19;20491;-67
2023/08/31 02:55:47;;;;;;;5.55;3.15;;;;;;;11.34;100.00;100879.66;6070071;19;20266;-67
2023/08/31 02:57:52;;;;;;;6.53;3.05;;;;;;;11.32;100.00;100868.38;6068460;19;20527;-67
2023/08/31 02:59:59;;;;;;;7.15;3.35;;;;;;;11.33;100.00;100871.84;6071891;19;20038;-68
2023/08/31 03:02:05;;;;;;;7.13;3.20;;;;;;;11.36;100.00;100874.34;6070112;19;20006;-69
2023/08/31 03:04:10;;;;;;;7.97;3.88;;;;;;;11.34;100.00;100884.09;6068284;19;20033;-69
2023/08/31 03:06:18;;;;;;;8.45;3.45;;;;;;;11.35;100.00;100868.25;6068414;19;20242;-68
2023/08/31 03:08:23;;;;;;;4.82;2.85;;;;;;;11.35;100.00;100870.88;6068325;19;20003;-68
2023/08/31 03:10:28;;;;;;;6.57;2.88;;;;;;;11.36;100.00;100874.34;6070561;19;20269;-69
2023/08/31 03:12:33;;;;;;;5.68;2.95;;;;;;;11.38;100.00;100865.47;6076518;19;20022;-68
2023/08/31 03:14:38;;;;;;;11.57;3.25;;;;;;;11.39;100.00;100867.16;6068395;19;20032;-69
2023/08/31 03:16:44;;;;;;;6.85;2.78;;;;;;;11.38;100.00;100857.59;6074508;19;20351;-69
2023/08/31 03:18:49;;;;;;;5.88;2.97;;;;;;;11.34;100.00;100858.63;6067726;19;20410;-69
2023/08/31 03:20:54;;;;;;;7.18;2.92;;;;;;;11.24;100.00;100862.56;6062309;19;20270;-69
2023/08/31 03:23:02;;;;;;;6.68;3.00;;;;;;;11.27;100.00;100865.09;6068008;19;20746;-70
2023/08/31 03:25:08;;;;;;;4.60;2.60;;;;;;;11.27;100.00;100864.22;6073041;19;20598;-68
2023/08/31 03:27:13;;;;;;;7.95;3.08;;;;;;;11.22;100.00;100867.06;6070467;19;20340;-67
2023/08/31 03:29:21;;;;;;;5.45;2.72;;;;;;;11.23;100.00;100868.75;6065374;19;20219;-69
2023/08/31 03:31:29;;;;;;;4.47;2.88;;;;;;;11.22;100.00;100867.06;6072723;19;20010;-70
2023/08/31 03:33:35;;;;;;;7.50;2.88;;;;;;;11.20;100.00;100863.63;6070643;19;20250;-69
2023/08/31 03:35:40;;;;;;;6.10;3.10;;;;;;;11.18;100.00;100868.94;6071322;19;20514;-69
2023/08/31 03:37:46;;;;;;;8.63;3.30;;;;;;;11.14;100.00;100866.53;6069893;19;20623;-70
2023/08/31 03:39:54;;;;;;;6.63;3.20;;;;;;;11.14;100.00;100872.66;6084698;19;20018;-68
2023/08/31 03:41:57;;;;;;;4.70;2.72;;;;;;;11.16;100.00;100869.94;6085906;19;20389;-70
2023/08/31 03:44:02;;;;;;;5.00;2.85;;;;;;;11.11;100.00;100872.78;6073723;19;20579;-67
2023/08/31 03:46:08;;;;;;;3.53;2.22;;;;;;;11.09;100.00;100879.03;6068645;19;20002;-69
2023/08/31 03:48:23;;;;;;;7.22;2.83;;;;;;;11.08;100.00;100880.78;6010221;19;20498;-69
2023/08/31 03:50:28;;;;;;;5.47;2.58;;;;;;;11.07;100.00;100876.44;6030550;19;20024;-69
2023/08/31 03:52:34;;;;;;;8.90;3.60;;;;;;;11.05;100.00;100882.69;6079507;19;20644;-69
2023/08/31 03:54:39;;;;;;;5.75;3.10;;;;;;;11.01;100.00;100879.34;6072804;19;19999;-69
2023/08/31 03:56:46;;;;;;;5.03;2.47;;;;;;;10.98;100.00;100882.09;6095731;19;20011;-70
2023/08/31 03:58:52;;;;;;;6.10;2.85;;;;;;;10.98;100.00;100879.47;6058235;19;20037;-68
2023/08/31 04:01:02;;;;;;;7.45;2.55;;;;;;;10.95;100.00;100882.19;6087471;19;20104;-69
2023/08/31 04:03:08;;;;;;;5.57;2.63;;;;;;;10.94;100.00;100885.75;6082688;19;20046;-68
2023/08/31 04:05:15;;;;;;;6.63;2.83;;;;;;;10.95;100.00;100880.47;6082973;19;20048;-68
2023/08/31 04:07:20;;;;;;;9.73;2.70;;;;;;;10.97;100.00;100889.09;6076517;19;20010;-68
2023/08/31 04:09:25;;;;;;;4.88;2.53;;;;;;;11.01;100.00;100886.38;6055548;19;20423;-69
2023/08/31 04:11:46;;;;;;;3.85;2.05;;;;;;;11.04;100.00;100886.25;6087288;19;20015;-69
2023/08/31 04:13:52;;;;;;;9.27;2.88;;;;;;;11.04;100.00;100891.50;6076935;19;20018;-68
2023/08/31 04:15:59;;;;;;;4.93;2.60;;;;;;;11.08;100.00;100893.06;6096158;19;20083;-69
2023/08/31 04:18:05;;;;;;;6.85;2.45;;;;;;;11.05;100.00;100895.84;6082249;19;20614;-69
2023/08/31 04:20:11;;;;;;;4.47;2.58;;;;;;;11.07;100.00;100897.47;6079294;19;20258;-69
2023/08/31 04:22:16;;;;;;;4.03;2.50;;;;;;;11.07;100.00;100897.47;6083003;19;20015;-70
2023/08/31 04:24:21;;;;;;;5.88;2.53;;;;;;;11.09;100.00;100893.03;6080998;19;20464;-69
2023/08/31 04:26:28;;;;;;;7.72;3.13;;;;;;;11.10;100.00;100896.50;6076125;19;20011;-69
2023/08/31 04:28:35;;;;;;;6.55;3.22;;;;;;;11.10;100.00;100893.88;6079713;19;20006;-69
2023/08/31 04:30:43;;;;;;;6.07;3.00;;;;;;;11.12;100.00;100903.41;6073246;19;20006;-69
2023/08/31 04:32:48;;;;;;;6.05;2.72;;;;;;;11.16;100.00;100901.50;6074013;19;20459;-69
2023/08/31 04:34:53;;;;;;;8.38;3.40;;;;;;;11.12;100.00;100900.78;6081103;19;20006;-70
2023/08/31 04:37:01;;;;;;;6.78;3.50;;;;;;;11.09;100.00;100900.91;6073701;19;20089;-69
2023/08/31 04:39:07;;;;;;;7.50;3.35;;;;;;;11.06;100.00;100906.31;6058374;19;20033;-69
2023/08/31 04:41:12;;;;;;;4.93;2.72;;;;;;;11.05;100.00;100898.47;6060035;19;20034;-69
2023/08/31 04:43:18;;;;;;;8.73;3.28;;;;;;;11.01;100.00;100905.63;6063261;19;20522;-69
2023/08/31 04:45:26;;;;;;;8.77;3.63;;;;;;;10.94;100.00;100907.66;6066865;19;20563;-68
2023/08/31 04:47:31;;;;;;;4.70;2.25;;;;;;;10.95;100.00;100909.38;6067291;19;20195;-68
2023/08/31 04:49:36;;;;;;;5.78;2.28;;;;;;;10.96;100.00;100912.84;6060177;19;20051;-68
2023/08/31 04:51:42;;;;;;;5.53;2.70;;;;;;;10.95;100.00;100914.63;6061858;19;20006;-69
2023/08/31 04:53:47;;;;;;;7.70;2.47;;;;;;;10.96;100.00;100912.84;6060140;19;20011;-69
2023/08/31 04:55:56;;;;;;;7.20;2.95;;;;;;;10.93;100.00;100915.63;6061116;19;20570;-68
2023/08/31 04:58:01;;;;;;;4.88;2.55;;;;;;;10.91;100.00;100928.81;6060060;19;20010;-68
2023/08/31 05:00:08;;;;;;;5.97;2.30;;;;;;;10.98;100.00;100925.03;6063635;19;20665;-68
2023/08/31 05:02:16;;;;;;;6.60;2.65;;;;;;;11.05;100.00;100920.34;6062671;19;20035;-68
2023/08/31 05:04:23;;;;;;;5.93;2.58;;;;;;;10.98;100.00;100924.19;6062582;19;20003;-70
2023/08/31 05:06:31;;;;;;;7.72;2.88;;;;;;;11.01;100.00;100929.31;6059988;19;20006;-69
2023/08/31 05:08:36;;;;;;;6.28;3.03;;;;;;;11.01;100.00;100928.44;6069927;19;20629;-69
2023/08/31 05:10:41;;;;;;;6.88;2.80;;;;;;;11.08;100.00;100936.00;6067841;19;20477;-68
2023/08/31 05:12:49;;;;;;;5.75;2.38;;;;;;;11.12;100.00;100942.00;6060497;19;20616;-68
2023/08/31 05:14:55;;;;;;;6.47;2.33;;;;;;;11.14;100.00;100943.66;6066383;19;20075;-70
2023/08/31 05:17:00;;;;;;;6.32;2.05;;;;;;;11.25;100.00;100945.00;6065466;19;20019;-70
2023/08/31 05:19:07;;;;;;;5.97;2.05;;;;;;;11.34;100.00;100942.81;6061646;19;20046;-68
2023/08/31 05:21:12;;;;;;;5.97;2.17;;;;;;;11.47;100.00;100945.78;6061152;19;20007;-67
2023/08/31 05:23:17;;;;;;;5.07;1.95;;;;;;;11.48;100.00;100949.25;6058863;19;20523;-68
2023/08/31 05:25:22;;;;;;;3.10;1.88;;;;;;;11.44;100.00;100943.28;6067081;19;20010;-69
2023/08/31 05:27:29;;;;;;;3.88;2.03;;;;;;;11.56;100.00;100948.03;6055338;19;20539;-68
2023/08/31 05:29:35;;;;;;;3.65;2.15;;;;;;;11.50;100.00;100952.69;6064880;19;20444;-69
2023/08/31 05:31:40;;;;;;;2.65;1.70;;;;;;;11.51;100.00;100949.16;6062829;19;20684;-69
2023/08/31 05:33:48;;;;;;;3.63;1.98;;;;;;;11.51;100.00;100955.28;6062813;19;20018;-68
2023/08/31 05:35:55;;;;;;;5.65;2.00;;;;;;;11.64;100.00;100952.97;6062438;19;20003;-69
2023/08/31 05:38:00;;;;;;;4.95;2.05;;;;;;;11.68;100.00;100957.16;6022168;19;20105;-67
2023/08/31 05:40:10;;;;;;;4.35;1.88;;;;;;;11.68;100.00;100956.31;6067468;19;20015;-68
2023/08/31 05:42:15;;;;;;;4.85;2.03;;;;;;;11.68;100.00;100956.31;6068454;19;20535;-68
2023/08/31 05:44:20;;;;;;;5.25;2.08;;;;;;;11.67;100.00;100965.16;6061882;19;20042;-68
2023/08/31 05:46:27;;;;;;;5.95;1.90;;;;;;;11.66;100.00;100959.00;6065279;19;20569;-69
2023/08/31 05:48:33;;;;;;;2.85;1.98;;;;;;;11.68;100.00;100970.34;6065851;19;20006;-69
2023/08/31 05:50:39;;;;;;;5.55;2.15;;;;;;;11.70;100.00;100965.88;6072791;19;20544;-68
2023/08/31 05:52:47;;;;;;;4.38;1.88;;;;;;;11.84;100.00;100967.88;6070835;19;20015;-70
2023/08/31 05:54:49;;;;;;;4.68;2.42;;;;;;;12.01;100.00;100975.09;6080728;19;20550;-69
2023/08/31 05:56:59;;;;;;;7.60;2.42;;;;;;;12.07;100.00;100977.44;6066831;19;20375;-69
2023/08/31 05:59:05;;;;;;;7.63;2.00;;;;;;;12.04;100.00;100969.69;6066746;19;20107;-69
2023/08/31 06:01:10;;;;;;;5.18;1.98;;;;;;;12.05;100.00;100976.66;6066298;19;20010;-67
2023/08/31 06:03:15;;;;;;;6.80;2.88;;;;;;;12.07;100.00;100969.56;6084251;19;20090;-68
2023/08/31 06:05:20;;;;;;;4.07;1.77;;;;;;;12.37;100.00;100976.97;6081990;19;20002;-67
2023/08/31 06:07:25;;;;;;;4.30;1.80;;;;;;;12.83;100.00;100974.84;6086953;19;20007;-67
2023/08/31 06:09:34;;;;;;;3.80;1.60;;;;;;;13.01;100.00;100973.97;6082633;19;20010;-68
2023/08/31 06:11:40;;;;;;;7.00;3.20;;;;;;;13.27;100.00;100978.00;6077725;19;20007;-68
2023/08/31 06:13:47;;;;;;;3.97;2.47;;;;;;;13.44;98.91;100981.59;6089285;19;20007;-68
2023/08/31 06:15:55;;;;;;;3.75;2.17;;;;;;;13.64;98.57;100980.56;6082155;19;20015;-69
2023/08/31 06:18:00;;;;;;;7.65;2.58;;;;;;;13.84;96.98;100975.94;6071452;19;20007;-70
2023/08/31 06:20:08;;;;;;;2.35;1.88;;;;;;;14.05;96.07;100983.69;6079530;19;20371;-69
2023/08/31 06:22:13;;;;;;;2.92;1.52;;;;;;;14.26;94.25;100977.28;6073493;19;20212;-68
2023/08/31 06:24:18;;;;;;;4.32;2.17;;;;;;;14.38;94.76;100970.47;6057843;19;20519;-71
2023/08/31 06:26:26;;;;;;;1.70;1.60;;;;;;;14.62;93.83;100978.03;6079384;19;20434;-68
2023/08/31 06:28:31;;;;;;;3.50;1.90;;;;;;;14.77;92.59;100979.84;6085726;19;20003;-68
2023/08/31 06:30:36;;;;;;;3.08;2.30;;;;;;;14.83;91.40;100987.44;6084423;19;20027;-67
2023/08/31 06:32:41;;;;;;;3.45;1.80;;;;;;;14.89;89.97;100979.13;6087427;19;20491;-69
2023/08/31 06:34:56;;;;;;;3.53;2.58;;;;;;;15.06;89.79;100987.91;6085692;19;20006;-69
2023/08/31 06:37:06;;;;;;;6.50;2.30;;;;;;;15.40;89.11;100991.25;6078153;19;20010;-68
2023/08/31 06:39:11;;;;;;;3.97;1.98;;;;;;;15.51;88.98;100989.72;6073935;19;20094;-68
2023/08/31 06:41:16;;;;;;;5.28;1.70;;;;;;;15.58;88.26;100982.25;6059767;19;20347;-69
2023/08/31 06:43:26;;;;;;;4.43;2.15;;;;;;;15.78;87.83;100989.03;6071240;19;20068;-68
2023/08/31 06:45:31;;;;;;;4.18;1.70;;;;;;;16.09;87.42;100988.03;6063739;19;20061;-68
2023/08/31 06:47:37;;;;;;;5.30;1.77;;;;;;;16.31;87.79;100989.38;6070234;19;20396;-68
2023/08/31 06:49:40;;;;;;;4.85;2.13;;;;;;;16.33;87.29;100990.97;6076110;19;20014;-69
2023/08/31 06:51:53;;;;;;;2.80;2.00;;;;;;;16.50;85.23;100997.03;6073897;19;20374;-69
2023/08/31 06:54:05;;;;;;;1.67;1.58;;;;;;;16.72;86.68;100996.50;6070288;19;20105;-70
2023/08/31 06:56:11;;;;;;;5.47;1.80;;;;;;;16.75;84.95;100999.00;6072194;19;20013;-70
2023/08/31 06:58:16;;;;;;;7.63;2.88;;;;;;;16.73;83.53;101001.72;6070049;19;20014;-69
2023/08/31 07:00:24;;;;;;;4.18;1.90;;;;;;;16.92;82.79;101005.91;6071834;19;20089;-70
2023/08/31 07:02:34;;;;;;;3.95;1.90;;;;;;;17.10;82.44;101004.69;6070033;19;20031;-69
2023/08/31 07:04:39;;;;;;;4.13;1.73;;;;;;;17.17;80.36;101003.34;6069828;19;20467;-68
2023/08/31 07:06:44;;;;;;;4.43;1.75;;;;;;;17.13;80.30;101016.94;6063644;19;20039;-69
2023/08/31 07:08:56;;;;;;;2.95;1.80;;;;;;;17.43;79.69;101014.03;6063153;19;20026;-69
2023/08/31 07:11:01;;;;;;;3.80;2.10;;;;;;;17.57;80.06;101005.19;6057213;19;20006;-68
2023/08/31 07:13:07;;;;;;;2.72;1.60;;;;;;;17.50;78.69;101005.56;6066318;19;20042;-70
2023/08/31 07:15:14;;;;;;;4.10;1.65;;;;;;;17.84;79.70;101016.63;6063193;19;20010;-68
2023/08/31 07:17:24;;;;;;;3.70;1.45;;;;;;;17.49;76.15;101011.84;6063748;19;20797;-69
2023/08/31 07:19:30;;;;;;;2.25;1.40;;;;;;;17.28;73.07;101015.94;6067299;19;21337;-70
2023/08/31 07:21:36;;;;;;;4.00;1.67;;;;;;;17.40;74.36;101012.44;6062457;19;20012;-70
2023/08/31 07:23:41;;;;;;;2.80;1.30;;;;;;;17.71;75.33;101018.38;6070615;19;21602;-68
2023/08/31 07:25:46;;;;;;;3.00;1.55;;;;;;;17.92;73.83;101024.06;6063350;19;20019;-69
2023/08/31 07:27:53;;;;;;;4.35;1.50;;;;;;;17.41;72.78;101030.09;6073467;19;20021;-68
2023/08/31 07:30:03;;;;;;;2.70;1.60;;;;;;;17.96;72.72;101018.44;6067866;19;20105;-69
2023/08/31 07:32:08;;;;;;;1.60;1.40;;;;;;;18.09;72.49;101021.09;6064137;19;20346;-68
2023/08/31 07:34:16;;;;;;;1.95;1.33;;;;;;;18.34;72.68;101019.38;6062907;19;20250;-70
2023/08/31 07:36:21;;;;;;;4.03;1.40;;;;;;;18.48;71.71;101027.25;6061602;19;20439;-69
2023/08/31 07:38:23;;;;;;;4.22;1.85;;;;;;;18.33;71.99;101023.88;6069245;19;20571;-68
2023/08/31 07:40:52;;;;;;;2.90;1.65;;;;;;;17.97;71.46;101028.09;6047803;19;20330;-69
2023/08/31 07:43:01;;;;;;;5.78;1.80;;;;;;;18.48;70.66;101027.25;6033723;19;20074;-68
2023/08/31 07:45:08;;;;;;;2.20;1.45;;;;;;;18.34;70.11;101022.06;6068753;19;20032;-68
2023/08/31 07:47:13;;;;;;;2.70;1.40;;;;;;;18.31;70.32;101019.63;6065727;19;20029;-69
2023/08/31 07:49:21;;;;;;;5.03;1.80;;;;;;;17.90;68.54;101025.97;6063187;19;20316;-69
2023/08/31 07:51:29;;;;;;;2.88;1.50;;;;;;;18.26;67.75;101025.25;6063931;19;20802;-69
2023/08/31 07:53:34;;;;;;;2.70;1.20;;;;;;;18.45;67.91;101031.94;6056002;19;20311;-67
2023/08/31 07:55:40;;;;;;;2.88;1.52;;;;;;;18.80;67.42;101030.31;6060051;19;20166;-68
2023/08/31 07:57:45;;;;;;;2.08;1.20;;;;;;;18.84;65.87;101034.44;6055571;19;20007;-70
2023/08/31 07:59:50;;;;;;;2.72;1.30;;;;;;;18.83;66.25;101038.06;6057984;19;20024;-69
2023/08/31 08:02:13;;;;;;;3.40;1.42;;;;;;;18.79;65.23;101038.41;6063833;19;20510;-70
2023/08/31 08:04:24;;;;;;;3.47;1.13;;;;;;;18.78;64.73;101036.72;6053980;19;20287;-68
2023/08/31 08:06:30;;;;;;;4.32;1.45;;;;;;;19.30;64.40;101041.75;6060534;19;20185;-67
2023/08/31 08:08:35;;;;;;;3.80;1.33;;;;;;;19.58;64.50;101041.50;6056847;19;20276;-67
2023/08/31 08:10:43;;;;;;;1.27;1.08;;;;;;;19.90;63.11;101039.06;6055549;19;20045;-68
2023/08/31 08:12:48;;;;;;;6.38;2.45;;;;;;;20.08;62.92;101044.81;6067269;19;20431;-68
2023/08/31 08:14:53;;;;;;;8.27;2.22;;;;;;;19.69;61.90;101047.75;6057815;19;20228;-68
2023/08/31 08:17:12;;;;;;;;;;;;;;;;;;;;;
2023/08/31 08:19:41;;;;;;;2.85;1.38;;;;;;;19.95;62.73;101047.59;6056778;19;20007;-69
2023/08/31 08:21:46;;;;;;;4.55;1.42;;;;;;;20.06;61.99;101050.25;6047720;19;20006;-68
2023/08/31 08:23:55;;;;;;;3.33;1.70;;;;;;;19.88;61.07;101052.56;6063276;19;20017;-68
2023/08/31 08:26:01;;;;;;;2.92;1.50;;;;;;;19.64;61.98;101060.56;6045574;19;20011;-69
2023/08/31 08:28:07;;;;;;;4.13;1.73;;;;;;;19.44;61.64;101062.03;6073194;19;20098;-68
2023/08/31 08:30:15;;;;;;;5.57;1.95;;;;;;;19.41;60.61;101064.94;6073180;19;20225;-68
2023/08/31 08:32:20;;;;;;;4.55;1.50;;;;;;;19.09;62.55;101067.31;6064756;19;20311;-68
2023/08/31 08:34:29;;;;;;;2.67;1.48;;;;;;;19.37;61.93;101065.28;6063546;19;20821;-70
2023/08/31 08:36:36;;;;;;;5.30;1.63;;;;;;;19.60;61.43;101069.75;6054166;19;20440;-69
2023/08/31 08:38:41;;;;;;;2.60;1.60;;;;;;;19.70;60.65;101076.13;6056265;19;20021;-68
2023/08/31 08:40:49;;;;;;;2.67;1.83;;;;;;;19.70;58.94;101069.94;6061406;19;20759;-69
2023/08/31 08:42:56;;;;;;;3.80;1.70;;;;;;;19.84;58.58;101075.06;6057438;19;20022;-69
2023/08/31 08:45:05;;;;;;;5.00;1.52;;;;;;;19.65;60.13;101077.41;6057172;19;20374;-68
2023/08/31 08:47:10;;;;;;;3.17;1.48;;;;;;;20.09;59.07;101079.41;6055948;19;20010;-68
2023/08/31 08:49:17;;;;;;;4.05;1.40;;;;;;;19.61;57.16;101075.91;6064337;19;21996;-68
2023/08/31 08:51:23;;;;;;;5.03;1.60;;;;;;;19.68;57.87;101078.03;6060515;19;20011;-68
2023/08/31 08:53:33;;;;;;;3.55;1.63;;;;;;;20.34;59.25;101075.66;6057621;19;20003;-68
2023/08/31 08:55:38;;;;;;;4.35;1.42;;;;;;;20.48;56.55;101084.41;6061846;19;20188;-68
2023/08/31 08:57:40;;;;;;;2.28;1.17;;;;;;;20.13;55.15;101077.34;6065784;19;20019;-68
2023/08/31 08:59:45;;;;;;;;;;;;;;;20.39;56.66;101088.66;6063491;19;20010;-67
2023/08/31 09:01:51;;;;;;;1.83;1.20;;;;;;;20.56;55.37;101088.25;6050199;19;20188;-69
2023/08/31 09:03:59;;;;;;;2.05;1.58;;;;;;;21.03;56.58;101093.41;6066056;19;20022;-69
2023/08/31 09:06:08;;;;;;;5.60;1.92;;;;;;;20.03;55.44;101103.84;6061989;19;20003;-70
2023/08/31 09:08:15;;;;;;;4.40;1.48;;;;;;;20.51;57.74;101095.72;6052479;19;20254;-69
2023/08/31 09:10:26;;;;;;;6.45;1.95;;;;;;;21.25;56.96;101097.88;6059096;19;20239;-68
2023/08/31 09:12:31;;;;;;;3.45;1.38;;;;;;;20.27;54.63;101094.94;6062608;19;20013;-69
2023/08/31 09:14:36;;;;;;;4.88;2.08;;;;;;;20.26;55.87;101087.91;6057226;19;20501;-68
2023/08/31 09:16:47;;;;;;;3.10;1.35;;;;;;;19.68;57.23;101096.72;6070850;19;20027;-68
2023/08/31 09:18:52;;;;;;;3.55;1.13;;;;;;;20.63;56.80;101088.59;6075630;19;20511;-69
2023/08/31 09:21:00;;;;;;;6.20;1.60;;;;;;;20.86;55.07;101096.59;6079225;19;20593;-68
2023/08/31 09:23:03;;;;;;;1.33;1.15;;;;;;;20.37;54.08;101101.28;6078904;19;20551;-68
2023/08/31 09:25:11;;;;;;;2.35;1.17;;;;;;;20.48;55.39;101103.09;6063209;19;20774;-68
2023/08/31 09:27:19;;;;;;;2.22;1.23;;;;;;;20.50;54.80;101104.69;6060412;19;20444;-68
2023/08/31 09:29:24;;;;;;;4.95;1.63;;;;;;;19.73;54.66;101101.72;6063542;19;20200;-70
2023/08/31 09:31:32;;;;;;;2.78;1.38;;;;;;;20.85;56.95;101098.41;6063698;19;20543;-67
2023/08/31 09:33:37;;;;;;;2.05;1.30;;;;;;;21.36;55.39;101100.53;6055768;19;20666;-67
2023/08/31 09:35:40;;;;;;;3.10;1.30;;;;;;;21.65;54.01;101100.81;6055198;19;20572;-67
2023/08/31 09:37:58;;;;;;;5.70;2.05;;;;;;;21.54;52.52;101108.03;6055299;19;20010;-69
2023/08/31 09:40:05;;;;;;;7.88;2.00;;;;;;;21.25;52.56;101111.25;6047800;19;20471;-69
2023/08/31 09:42:10;;;;;;;3.75;1.50;;;;;;;21.65;52.36;101103.50;6053175;19;20010;-68
2023/08/31 09:44:21;;;;;;;2.38;1.08;;;;;;;;;;6049224;19;20017;-69
2023/08/31 09:46:29;;;;;;;3.47;1.95;;;;;;;21.35;51.64;101104.16;6052194;19;20647;-69
2023/08/31 09:48:34;;;;;;;3.05;1.25;;;;;;;21.20;51.38;101103.59;6055212;19;20308;-69